Time;durP1;ratioP1;P1;durP2;ratioP2;P2;SDS_P1;SDS_P2;PMS_P1;PMS_P2;Temp;Humidity;BMP_temperature;BMP_pressure;BME280_temperature;BME280_humidity;BME280_pressure;Samples;Min_cycle;Max_cycle;Signal;HPM_P1;HPM_P2
2023/03/30 00:00:22;;;;;;;5.30;2.20;;;14.00;99.90;;;;;;5051286;28;20475;-72
2023/03/30 00:02:52;;;;;;;2.70;1.17;;;14.00;99.90;;;;;;5050884;28;20444;-72
2023/03/30 00:05:22;;;;;;;4.40;1.67;;;14.10;99.90;;;;;;5050635;28;20444;-72
2023/03/30 00:07:49;;;;;;;7.43;2.70;;;14.10;99.90;;;;;;5050592;28;20464;-72
2023/03/30 00:10:18;;;;;;;2.00;1.33;;;14.20;99.90;;;;;;5052474;28;20435;-72
2023/03/30 00:12:46;;;;;;;2.80;1.40;;;14.20;99.90;;;;;;5053234;28;20509;-72
2023/03/30 00:15:15;;;;;;;1.40;1.13;;;14.20;99.90;;;;;;5050599;28;20444;-72
2023/03/30 00:17:42;;;;;;;2.23;1.50;;;14.30;99.90;;;;;;5050530;28;20566;-72
2023/03/30 00:20:11;;;;;;;4.03;1.40;;;14.40;99.90;;;;;;5050120;28;21045;-72
2023/03/30 00:22:40;;;;;;;2.97;1.87;;;14.40;99.90;;;;;;5050911;28;20451;-72
2023/03/30 00:25:10;;;;;;;2.53;1.30;;;14.50;99.90;;;;;;5051696;28;20526;-72
2023/03/30 00:27:37;;;;;;;2.47;1.50;;;14.40;99.90;;;;;;5050302;28;20554;-72
2023/03/30 00:30:06;;;;;;;1.90;1.30;;;14.50;99.90;;;;;;5053013;28;20440;-72
2023/03/30 00:32:33;;;;;;;2.10;1.10;;;14.50;99.90;;;;;;5057233;28;20451;-72
2023/03/30 00:35:01;;;;;;;4.30;1.80;;;14.60;99.90;;;;;;5053190;28;20444;-73
2023/03/30 00:37:29;;;;;;;2.90;1.60;;;14.60;99.90;;;;;;5050492;28;20478;-72
2023/03/30 00:39:58;;;;;;;1.83;1.30;;;14.60;99.90;;;;;;5049597;28;20483;-72
2023/03/30 00:42:25;;;;;;;3.57;2.70;;;14.60;99.90;;;;;;5050018;28;20801;-72
2023/03/30 00:45:20;;;;;;;3.30;1.60;;;14.70;99.90;;;;;;5050435;28;20447;-72
2023/03/30 00:47:52;;;;;;;4.17;1.60;;;14.70;99.90;;;;;;5043141;28;20471;-72
2023/03/30 00:50:21;;;;;;;4.00;1.50;;;14.80;99.90;;;;;;5064962;28;20896;-72
2023/03/30 00:52:52;;;;;;;1.57;1.47;;;14.80;99.90;;;;;;5050937;28;20990;-72
2023/03/30 00:55:22;;;;;;;3.67;1.63;;;14.80;99.90;;;;;;5050412;28;20428;-72
2023/03/30 00:57:51;;;;;;;2.77;1.20;;;14.90;99.90;;;;;;5049739;28;20911;-72
2023/03/30 01:00:22;;;;;;;4.17;1.63;;;14.90;99.90;;;;;;5050419;28;20482;-72
2023/03/30 01:02:54;;;;;;;2.20;1.43;;;14.90;99.90;;;;;;5050188;28;20434;-72
2023/03/30 01:05:22;;;;;;;2.43;1.10;;;14.90;99.90;;;;;;5050114;28;20887;-72
2023/03/30 01:07:52;;;;;;;2.90;1.60;;;15.00;99.90;;;;;;5049525;28;20554;-72
2023/03/30 01:10:21;;;;;;;3.07;1.60;;;15.00;99.90;;;;;;5049724;28;20492;-72
2023/03/30 01:12:50;;;;;;;2.30;1.40;;;15.00;99.90;;;;;;5049691;28;20452;-72
2023/03/30 01:15:18;;;;;;;4.37;1.60;;;14.90;99.90;;;;;;5049896;28;20447;-72
2023/03/30 01:18:01;;;;;;;2.10;1.47;;;14.90;99.90;;;;;;5049974;28;20463;-72
2023/03/30 01:21:14;;;;;;;2.90;1.43;;;15.00;99.90;;;;;;5049635;28;20532;-72
2023/03/30 01:24:03;;;;;;;4.17;1.30;;;15.10;99.90;;;;;;5053664;28;20503;-72
2023/03/30 01:26:46;;;;;;;2.33;1.33;;;15.10;99.90;;;;;;5049973;28;20555;-72
2023/03/30 01:29:26;;;;;;;3.10;1.53;;;15.10;99.90;;;;;;5049976;28;20458;-72
2023/03/30 01:32:30;;;;;;;2.20;1.77;;;15.10;99.90;;;;;;5049552;28;20936;-72
2023/03/30 01:35:26;;;;;;;2.90;1.33;;;15.20;99.90;;;;;;5049855;28;20467;-72
2023/03/30 01:38:23;;;;;;;1.67;1.23;;;15.20;99.90;;;;;;5049750;28;20491;-72
2023/03/30 01:40:59;;;;;;;1.90;1.57;;;15.30;99.90;;;;;;5046782;28;20522;-72
2023/03/30 01:43:35;;;;;;;2.60;2.20;;;15.30;99.90;;;;;;5059082;28;20466;-72
2023/03/30 01:46:08;;;;;;;5.80;1.50;;;15.40;99.90;;;;;;5059763;28;20427;-72
2023/03/30 01:48:44;;;;;;;3.13;1.63;;;15.50;99.90;;;;;;5053667;28;20524;-72
2023/03/30 01:51:16;;;;;;;5.33;1.23;;;15.60;99.90;;;;;;5053679;28;20439;-72
2023/03/30 01:53:53;;;;;;;3.37;1.40;;;15.70;99.90;;;;;;5055365;28;20913;-72
2023/03/30 01:56:27;;;;;;;3.47;1.63;;;15.80;99.90;;;;;;5052878;28;21022;-72
2023/03/30 01:58:59;;;;;;;2.70;1.07;;;15.90;99.90;;;;;;5053168;28;20470;-72
2023/03/30 02:01:28;;;;;;;6.40;1.60;;;16.00;99.90;;;;;;5053443;28;20499;-72
2023/03/30 02:03:58;;;;;;;2.60;2.03;;;16.00;99.90;;;;;;5053799;28;20451;-72
2023/03/30 02:06:37;;;;;;;4.63;1.13;;;16.00;99.90;;;;;;5052984;28;20463;-73
2023/03/30 02:09:06;;;;;;;2.10;1.33;;;16.00;99.90;;;;;;5053311;28;20515;-72
2023/03/30 02:11:36;;;;;;;1.97;1.33;;;16.00;99.90;;;;;;5052903;28;20536;-72
2023/03/30 02:14:05;;;;;;;3.00;1.70;;;16.10;99.90;;;;;;5052825;28;20515;-72
2023/03/30 02:16:38;;;;;;;2.70;1.60;;;16.00;99.90;;;;;;5052699;28;20914;-72
2023/03/30 02:19:06;;;;;;;4.37;1.73;;;16.00;99.90;;;;;;5052465;28;20876;-72
2023/03/30 02:21:34;;;;;;;3.90;1.43;;;16.10;99.90;;;;;;5052455;28;20505;-72
2023/03/30 02:24:03;;;;;;;3.13;2.53;;;16.10;99.90;;;;;;5052656;28;20547;-72
2023/03/30 02:26:31;;;;;;;3.00;1.60;;;16.00;99.90;;;;;;5052253;28;20474;-72
2023/03/30 02:29:00;;;;;;;2.93;1.80;;;16.00;99.90;;;;;;5052363;28;21026;-72
2023/03/30 02:31:31;;;;;;;3.27;1.40;;;16.00;99.90;;;;;;5052614;28;20452;-72
2023/03/30 02:34:10;;;;;;;8.37;1.70;;;16.00;99.90;;;;;;5052464;28;20443;-72
2023/03/30 02:36:59;;;;;;;3.23;1.33;;;16.00;99.90;;;;;;5057153;28;20495;-72
2023/03/30 02:39:36;;;;;;;2.57;1.30;;;16.00;99.90;;;;;;5064273;28;20521;-72
2023/03/30 02:42:39;;;;;;;4.80;1.60;;;15.90;99.90;;;;;;5052278;28;20416;-72
2023/03/30 02:45:23;;;;;;;1.20;0.90;;;16.00;99.90;;;;;;5051874;28;20868;-73
2023/03/30 02:48:00;;;;;;;6.13;2.40;;;16.00;99.90;;;;;;5051646;28;20445;-72
2023/03/30 02:50:34;;;;;;;1.60;1.20;;;16.00;99.90;;;;;;5051884;28;20497;-72
2023/03/30 02:53:11;;;;;;;1.70;1.40;;;16.00;99.90;;;;;;5050703;28;20436;-72
2023/03/30 02:55:47;;;;;;;6.50;1.90;;;16.00;99.90;;;;;;5051607;28;20434;-72
2023/03/30 02:58:20;;;;;;;2.80;1.50;;;16.00;99.90;;;;;;5051560;28;21028;-72
2023/03/30 03:00:53;;;;;;;2.90;1.60;;;16.00;99.90;;;;;;5052182;28;20541;-72
2023/03/30 03:03:24;;;;;;;2.73;1.80;;;16.00;99.90;;;;;;5051991;28;20424;-72
2023/03/30 03:05:53;;;;;;;2.17;1.30;;;16.00;99.90;;;;;;5051460;28;20431;-72
2023/03/30 03:08:23;;;;;;;2.50;1.60;;;16.00;99.90;;;;;;5052383;28;20454;-72
2023/03/30 03:10:51;;;;;;;3.17;1.87;;;15.90;99.90;;;;;;5053176;28;20450;-72
2023/03/30 03:13:20;;;;;;;1.63;1.17;;;15.90;99.90;;;;;;5051714;28;20479;-72
2023/03/30 03:15:49;;;;;;;4.00;2.33;;;15.80;99.90;;;;;;5051213;28;20444;-72
2023/03/30 03:18:17;;;;;;;3.57;1.23;;;15.80;99.90;;;;;;5051027;28;20562;-72
2023/03/30 03:20:44;;;;;;;1.27;1.07;;;15.80;99.90;;;;;;5051188;28;20483;-72
2023/03/30 03:23:12;;;;;;;2.63;1.17;;;15.80;99.90;;;;;;5051552;28;20475;-72
2023/03/30 03:25:39;;;;;;;2.37;1.17;;;15.80;99.90;;;;;;5051419;28;20501;-72
2023/03/30 03:28:06;;;;;;;1.73;1.43;;;15.90;99.90;;;;;;5051688;28;20467;-72
2023/03/30 03:30:33;;;;;;;7.23;2.03;;;15.80;99.90;;;;;;5053143;28;20475;-72
2023/03/30 03:33:01;;;;;;;4.10;1.20;;;15.80;99.90;;;;;;5062203;28;20451;-72
2023/03/30 03:35:28;;;;;;;3.53;1.70;;;15.80;99.90;;;;;;5051575;28;20454;-72
2023/03/30 03:37:56;;;;;;;2.60;1.60;;;15.70;99.90;;;;;;5051485;28;20503;-72
2023/03/30 03:40:23;;;;;;;1.60;0.93;;;15.70;99.90;;;;;;5052795;28;20503;-72
2023/03/30 03:42:53;;;;;;;1.87;1.47;;;15.70;99.90;;;;;;5050790;28;20497;-72
2023/03/30 03:45:21;;;;;;;1.70;1.27;;;15.70;99.90;;;;;;5051043;28;20432;-72
2023/03/30 03:47:50;;;;;;;1.53;1.20;;;15.70;99.90;;;;;;5054858;28;20928;-72
2023/03/30 03:50:19;;;;;;;3.40;1.10;;;15.80;99.90;;;;;;5052263;28;20444;-72
2023/03/30 03:52:46;;;;;;;2.20;1.37;;;15.70;99.90;;;;;;5050661;28;20447;-72
2023/03/30 03:55:13;;;;;;;3.10;1.17;;;15.70;99.90;;;;;;5050492;28;20974;-72
2023/03/30 03:57:41;;;;;;;2.63;1.30;;;15.70;99.90;;;;;;5050776;28;20463;-72
2023/03/30 04:00:14;;;;;;;4.53;1.43;;;15.80;99.90;;;;;;5050706;28;20585;-72
2023/03/30 04:02:43;;;;;;;1.67;1.20;;;15.70;99.90;;;;;;5050720;28;20432;-72
2023/03/30 04:05:10;;;;;;;2.70;1.40;;;15.80;99.90;;;;;;5050020;28;20466;-72
2023/03/30 04:07:39;;;;;;;2.10;1.60;;;15.80;99.90;;;;;;5050530;28;20468;-72
2023/03/30 04:10:07;;;;;;;1.63;1.40;;;15.80;99.90;;;;;;5050602;28;20863;-72
2023/03/30 04:12:34;;;;;;;1.67;1.57;;;15.80;99.90;;;;;;5050692;28;20448;-70
2023/03/30 04:15:01;;;;;;;3.40;1.67;;;15.80;99.90;;;;;;5050508;28;20814;-72
2023/03/30 04:17:28;;;;;;;2.70;1.43;;;15.80;99.90;;;;;;5050454;28;20464;-72
2023/03/30 04:19:55;;;;;;;3.40;2.90;;;15.80;99.90;;;;;;5050310;28;20486;-72
2023/03/30 04:22:24;;;;;;;2.17;1.50;;;15.80;99.90;;;;;;5050426;28;20447;-72
2023/03/30 04:24:52;;;;;;;3.17;1.10;;;15.80;99.90;;;;;;5053170;28;20527;-72
2023/03/30 04:27:19;;;;;;;2.90;1.27;;;15.80;99.90;;;;;;5066836;28;20467;-72
2023/03/30 04:29:46;;;;;;;2.80;1.70;;;15.90;99.90;;;;;;5053284;28;20993;-72
2023/03/30 04:32:19;;;;;;;2.93;1.30;;;15.90;99.90;;;;;;5050166;28;20923;-72
2023/03/30 04:34:48;;;;;;;2.60;1.03;;;15.90;99.90;;;;;;5049938;28;20432;-72
2023/03/30 04:37:17;;;;;;;5.27;1.77;;;15.90;99.90;;;;;;5050238;28;20495;-73
2023/03/30 04:39:44;;;;;;;3.43;1.57;;;16.00;99.90;;;;;;5049996;28;20452;-73
2023/03/30 04:42:18;;;;;;;3.17;1.57;;;15.90;99.90;;;;;;5050712;28;20522;-72
2023/03/30 04:44:46;;;;;;;4.73;1.67;;;16.00;99.90;;;;;;5049861;28;20427;-72
2023/03/30 04:47:13;;;;;;;3.90;2.03;;;15.90;99.90;;;;;;5050325;28;20459;-72
2023/03/30 04:49:39;;;;;;;2.70;1.93;;;15.90;99.90;;;;;;5050402;28;20471;-71
2023/03/30 04:52:06;;;;;;;1.37;1.23;;;15.80;99.90;;;;;;5050245;28;20502;-71
2023/03/30 04:54:33;;;;;;;4.20;3.90;;;15.90;99.90;;;;;;5050058;28;20451;-71
2023/03/30 04:57:03;;;;;;;1.97;1.60;;;16.00;99.90;;;;;;5050234;28;20546;-71
2023/03/30 04:59:32;;;;;;;2.40;1.80;;;15.90;99.90;;;;;;5052631;28;20869;-71
2023/03/30 05:01:59;;;;;;;2.00;1.40;;;15.90;99.90;;;;;;5054923;28;20482;-71
2023/03/30 05:04:26;;;;;;;3.00;1.50;;;15.80;99.90;;;;;;5050286;28;20944;-71
2023/03/30 05:06:53;;;;;;;4.40;2.70;;;15.80;99.90;;;;;;5049882;28;20913;-71
2023/03/30 05:09:20;;;;;;;5.97;2.30;;;15.80;99.90;;;;;;5049994;28;20476;-71
2023/03/30 05:11:47;;;;;;;6.27;2.30;;;15.80;99.90;;;;;;5050176;28;20443;-71
2023/03/30 05:14:15;;;;;;;5.10;1.27;;;15.70;99.90;;;;;;5050128;28;20452;-71
2023/03/30 05:16:44;;;;;;;3.03;2.27;;;15.80;99.90;;;;;;5053335;28;20459;-71
2023/03/30 05:19:11;;;;;;;2.60;2.00;;;15.70;99.90;;;;;;5055551;28;20435;-72
2023/03/30 05:21:42;;;;;;;3.50;2.10;;;15.80;99.90;;;;;;5062846;28;20474;-71
2023/03/30 05:24:09;;;;;;;8.43;1.70;;;15.80;99.90;;;;;;5041613;28;20444;-72
2023/03/30 05:26:36;;;;;;;3.90;1.90;;;15.70;99.90;;;;;;5055105;28;20549;-72
2023/03/30 05:29:02;;;;;;;3.90;1.50;;;15.80;99.90;;;;;;5054375;28;20926;-71
2023/03/30 05:31:29;;;;;;;2.97;1.63;;;15.70;99.90;;;;;;5055257;28;20526;-72
2023/03/30 05:33:57;;;;;;;2.50;1.60;;;15.70;99.90;;;;;;5053353;28;20478;-72
2023/03/30 05:36:25;;;;;;;2.13;1.80;;;15.70;99.90;;;;;;5053160;28;20945;-72
2023/03/30 05:38:52;;;;;;;2.40;1.73;;;15.80;99.90;;;;;;5053880;28;20531;-72
2023/03/30 05:41:19;;;;;;;4.13;1.40;;;15.70;99.90;;;;;;5053675;28;20483;-72
2023/03/30 05:43:47;;;;;;;6.17;2.50;;;15.80;99.90;;;;;;5053833;28;20468;-72
2023/03/30 05:46:15;;;;;;;2.93;1.90;;;15.70;99.90;;;;;;5054328;28;20608;-72
2023/03/30 05:48:42;;;;;;;2.47;1.30;;;15.60;99.90;;;;;;5053539;28;20535;-71
2023/03/30 05:51:11;;;;;;;2.67;1.67;;;15.50;99.90;;;;;;5053108;28;20530;-72
2023/03/30 05:53:44;;;;;;;2.70;1.60;;;15.50;99.90;;;;;;5052957;28;20474;-71
2023/03/30 05:56:10;;;;;;;6.43;1.70;;;15.60;99.90;;;;;;5052958;28;20438;-71
2023/03/30 05:58:39;;;;;;;3.03;1.53;;;15.50;99.90;;;;;;5052544;28;20535;-71
2023/03/30 06:01:08;;;;;;;1.87;1.63;;;15.50;99.90;;;;;;5052483;28;20558;-72
2023/03/30 06:03:35;;;;;;;7.43;2.40;;;15.40;99.90;;;;;;5052669;28;20543;-71
2023/03/30 06:06:02;;;;;;;3.70;1.70;;;15.40;99.90;;;;;;5052749;28;20451;-71
2023/03/30 06:08:30;;;;;;;3.00;1.87;;;15.50;99.90;;;;;;5053051;28;20466;-71
2023/03/30 06:10:57;;;;;;;1.97;1.40;;;15.50;99.90;;;;;;5053016;28;20831;-71
2023/03/30 06:13:25;;;;;;;3.10;1.93;;;15.50;99.90;;;;;;5053057;28;20452;-72
2023/03/30 06:15:52;;;;;;;1.20;1.10;;;15.40;99.90;;;;;;5060566;28;20515;-71
2023/03/30 06:18:19;;;;;;;6.60;1.50;;;15.40;99.90;;;;;;5061948;28;20443;-71
2023/03/30 06:20:47;;;;;;;7.10;2.17;;;15.50;99.90;;;;;;5054507;28;20452;-71
2023/03/30 06:23:14;;;;;;;3.90;1.80;;;15.50;99.90;;;;;;5052457;28;20477;-71
2023/03/30 06:25:46;;;;;;;3.10;1.37;;;15.60;99.90;;;;;;5052890;28;20457;-71
2023/03/30 06:28:13;;;;;;;2.00;1.43;;;15.50;99.90;;;;;;5052441;28;20940;-71
2023/03/30 06:30:41;;;;;;;6.43;1.97;;;15.50;99.90;;;;;;5053250;28;20810;-71
2023/03/30 06:33:08;;;;;;;2.70;1.50;;;15.60;99.90;;;;;;5053403;28;20561;-71
2023/03/30 06:35:35;;;;;;;4.30;2.10;;;15.60;99.90;;;;;;5053677;28;20543;-71
2023/03/30 06:38:02;;;;;;;2.00;1.43;;;15.60;99.90;;;;;;5052037;28;20841;-72
2023/03/30 06:40:29;;;;;;;2.23;1.70;;;15.50;99.90;;;;;;5052057;28;20563;-71
2023/03/30 06:42:57;;;;;;;3.00;2.10;;;15.50;99.90;;;;;;5051985;28;20505;-71
2023/03/30 06:45:27;;;;;;;2.20;1.40;;;15.60;99.90;;;;;;5052385;28;20823;-71
2023/03/30 06:47:54;;;;;;;3.00;1.20;;;15.50;99.90;;;;;;5052349;28;20491;-71
2023/03/30 06:50:23;;;;;;;3.17;1.73;;;15.60;99.90;;;;;;5051991;28;20458;-71
2023/03/30 06:52:50;;;;;;;2.67;1.23;;;15.60;99.90;;;;;;5051459;28;20822;-71
2023/03/30 06:55:17;;;;;;;1.70;1.50;;;15.60;99.90;;;;;;5052577;28;20456;-71
2023/03/30 06:57:47;;;;;;;2.50;1.50;;;15.60;99.90;;;;;;5052780;28;20470;-71
2023/03/30 07:00:16;;;;;;;5.27;1.60;;;15.70;99.90;;;;;;5051888;28;20542;-72
2023/03/30 07:02:44;;;;;;;6.00;2.03;;;15.80;99.90;;;;;;5051625;28;21014;-71
2023/03/30 07:05:11;;;;;;;2.90;1.20;;;16.10;99.90;;;;;;5052621;28;20471;-71
2023/03/30 07:07:39;;;;;;;1.97;0.93;;;16.10;99.90;;;;;;5052062;28;20503;-71
2023/03/30 07:10:09;;;;;;;5.23;1.80;;;16.10;99.90;;;;;;5057331;28;20451;-71
2023/03/30 07:12:37;;;;;;;1.90;1.40;;;16.10;99.90;;;;;;5058761;28;20447;-71
2023/03/30 07:15:05;;;;;;;2.37;1.00;;;16.10;99.90;;;;;;5052142;28;20475;-71
2023/03/30 07:17:34;;;;;;;2.10;1.20;;;16.10;99.90;;;;;;5051482;28;20837;-71
2023/03/30 07:20:06;;;;;;;4.23;1.23;;;16.00;99.90;;;;;;5051059;28;20474;-71
2023/03/30 07:22:34;;;;;;;3.33;2.13;;;16.00;99.90;;;;;;5051168;28;20475;-71
2023/03/30 07:25:00;;;;;;;3.83;2.00;;;16.00;99.90;;;;;;5051536;28;20539;-71
2023/03/30 07:27:28;;;;;;;1.60;1.43;;;16.00;99.90;;;;;;5051344;28;20572;-71
2023/03/30 07:29:55;;;;;;;1.87;1.03;;;16.10;99.90;;;;;;5051533;28;20551;-71
2023/03/30 07:32:22;;;;;;;2.83;2.60;;;15.90;99.90;;;;;;5051763;28;20448;-71
2023/03/30 07:34:50;;;;;;;5.37;1.50;;;15.90;99.90;;;;;;5052384;28;20975;-71
2023/03/30 07:37:17;;;;;;;5.23;1.17;;;16.00;99.90;;;;;;5052940;28;20463;-71
2023/03/30 07:39:44;;;;;;;1.63;1.40;;;15.90;99.90;;;;;;5050960;28;20462;-70
2023/03/30 07:42:11;;;;;;;3.43;1.53;;;15.90;99.90;;;;;;5055609;28;20527;-70
2023/03/30 07:44:38;;;;;;;1.57;1.27;;;15.80;99.90;;;;;;5051522;28;20526;-72
2023/03/30 07:47:06;;;;;;;6.03;1.53;;;15.70;99.90;;;;;;5050888;28;20464;-72
2023/03/30 07:49:33;;;;;;;2.93;1.20;;;15.70;99.90;;;;;;5050559;28;20972;-72
2023/03/30 07:52:01;;;;;;;2.80;1.20;;;15.70;99.90;;;;;;5051086;28;20952;-72
2023/03/30 07:54:28;;;;;;;5.13;1.53;;;15.80;99.90;;;;;;5050970;28;20934;-71
2023/03/30 07:56:57;;;;;;;3.67;1.10;;;15.70;99.90;;;;;;5050770;28;20535;-71
2023/03/30 07:59:24;;;;;;;2.70;1.50;;;15.70;99.90;;;;;;5050850;28;20422;-71
2023/03/30 08:01:55;;;;;;;2.07;1.40;;;15.70;99.90;;;;;;5050870;28;20535;-72
2023/03/30 08:04:24;;;;;;;1.40;1.10;;;15.80;99.90;;;;;;5051720;28;20438;-71
2023/03/30 08:06:54;;;;;;;3.40;1.40;;;15.80;99.90;;;;;;5062918;28;20476;-71
2023/03/30 08:09:22;;;;;;;1.50;1.07;;;15.90;99.90;;;;;;5050992;28;20479;-72
2023/03/30 08:11:53;;;;;;;1.30;1.10;;;15.90;99.90;;;;;;5050292;28;20443;-71
2023/03/30 08:14:22;;;;;;;1.40;1.10;;;15.80;99.90;;;;;;5050602;28;20449;-72
2023/03/30 08:16:49;;;;;;;1.20;1.00;;;15.30;99.90;;;;;;5050901;28;20867;-72
2023/03/30 08:19:16;;;;;;;5.33;1.63;;;14.80;99.90;;;;;;5051550;28;20627;-72
2023/03/30 08:21:43;;;;;;;2.80;1.17;;;14.50;99.90;;;;;;5058287;28;20562;-72
2023/03/30 08:24:10;;;;;;;3.40;1.70;;;14.50;99.90;;;;;;5051326;28;20499;-72
2023/03/30 08:26:43;;;;;;;2.47;2.03;;;14.40;99.90;;;;;;5050487;28;20478;-74
2023/03/30 08:29:11;;;;;;;1.97;1.60;;;14.60;99.90;;;;;;5050639;28;20428;-70
2023/03/30 08:31:38;;;;;;;2.47;1.57;;;14.80;99.90;;;;;;5050532;28;20443;-71
2023/03/30 08:34:06;;;;;;;3.30;1.20;;;15.10;99.90;;;;;;5051338;28;20837;-71
2023/03/30 08:36:33;;;;;;;1.53;1.10;;;15.20;99.90;;;;;;5050902;28;20472;-71
2023/03/30 08:39:01;;;;;;;1.47;1.33;;;15.40;99.90;;;;;;5050980;28;20519;-72
2023/03/30 08:41:56;;;;;;;6.00;1.67;;;15.50;99.90;;;;;;5051657;28;20514;-71
2023/03/30 08:44:33;;;;;;;1.27;0.87;;;15.60;99.90;;;;;;5051661;28;20432;-71
2023/03/30 08:47:02;;;;;;;7.97;2.60;;;15.70;99.90;;;;;;5050833;28;20464;-71
2023/03/30 08:49:34;;;;;;;3.83;1.70;;;15.50;99.90;;;;;;5050890;28;20443;-72
2023/03/30 08:52:04;;;;;;;2.80;2.00;;;15.40;99.90;;;;;;5054045;28;20498;-71
2023/03/30 08:54:32;;;;;;;4.63;2.83;;;15.20;99.90;;;;;;5053882;28;20927;-72
2023/03/30 08:57:08;;;;;;;4.83;2.33;;;15.00;99.90;;;;;;5054131;28;20902;-71
2023/03/30 08:59:44;;;;;;;3.80;1.60;;;14.90;99.90;;;;;;5055980;28;20431;-71
2023/03/30 09:02:17;;;;;;;4.70;2.60;;;14.90;99.90;;;;;;5068269;28;21044;-71
2023/03/30 09:05:04;;;;;;;2.70;2.17;;;14.70;99.90;;;;;;5057734;28;20463;-71
2023/03/30 09:07:36;;;;;;;2.07;1.70;;;14.70;99.90;;;;;;5055664;28;20870;-71
2023/03/30 09:10:10;;;;;;;1.80;1.40;;;14.70;99.90;;;;;;5053967;28;20524;-71
2023/03/30 09:12:43;;;;;;;1.70;1.30;;;14.80;99.90;;;;;;5053746;28;20438;-71
2023/03/30 09:15:16;;;;;;;2.33;1.40;;;14.70;99.90;;;;;;5053526;28;20461;-71
2023/03/30 09:17:48;;;;;;;5.33;1.43;;;14.70;99.90;;;;;;5053748;28;20468;-71
2023/03/30 09:20:20;;;;;;;2.60;2.40;;;14.70;99.90;;;;;;5053562;28;20471;-71
2023/03/30 09:22:51;;;;;;;2.00;1.70;;;14.80;99.90;;;;;;5053271;28;20569;-71
2023/03/30 09:25:24;;;;;;;10.20;2.60;;;14.90;99.90;;;;;;5053290;28;20509;-72
2023/03/30 09:28:00;;;;;;;1.50;1.33;;;14.90;99.90;;;;;;5034120;28;20658;-71
2023/03/30 09:30:34;;;;;;;1.40;1.13;;;15.00;99.90;;;;;;5053277;28;20922;-71
2023/03/30 09:33:06;;;;;;;2.80;2.40;;;15.00;99.90;;;;;;5053631;28;20438;-71
2023/03/30 09:35:40;;;;;;;2.83;2.63;;;15.10;99.90;;;;;;5053347;28;21003;-72
2023/03/30 09:38:13;;;;;;;6.23;2.10;;;15.20;99.90;;;;;;5054091;28;20578;-71
2023/03/30 09:41:05;;;;;;;3.57;2.23;;;15.10;99.90;;;;;;5053836;28;20471;-71
2023/03/30 09:43:36;;;;;;;1.70;1.30;;;15.00;99.90;;;;;;5052768;28;21028;-71
2023/03/30 09:46:06;;;;;;;2.47;1.70;;;14.90;99.90;;;;;;5054453;28;20823;-71
2023/03/30 09:48:41;;;;;;;4.20;1.43;;;14.90;99.90;;;;;;5054848;28;20800;-71
2023/03/30 09:51:23;;;;;;;6.80;3.60;;;14.90;99.90;;;;;;5056087;28;20439;-71
2023/03/30 09:53:52;;;;;;;4.10;1.53;;;14.80;99.90;;;;;;5053673;28;20455;-71
2023/03/30 09:56:27;;;;;;;12.53;2.07;;;14.80;99.90;;;;;;5064339;28;20471;-71
2023/03/30 09:58:56;;;;;;;2.77;1.40;;;14.70;99.90;;;;;;5057939;28;20427;-71
2023/03/30 10:01:35;;;;;;;4.20;1.80;;;14.60;99.90;;;;;;5052704;28;20968;-71
2023/03/30 10:04:08;;;;;;;5.73;1.70;;;14.60;99.90;;;;;;5052701;28;20506;-71
2023/03/30 10:06:39;;;;;;;1.80;1.50;;;14.70;99.90;;;;;;5052535;28;20954;-71
2023/03/30 10:09:10;;;;;;;1.37;1.00;;;14.80;99.90;;;;;;5053121;28;20804;-71
2023/03/30 10:11:42;;;;;;;13.43;2.10;;;14.90;99.90;;;;;;5052855;28;20447;-71
2023/03/30 10:14:30;;;;;;;1.93;1.50;;;15.10;99.90;;;;;;5053945;28;20515;-71
2023/03/30 10:16:59;;;;;;;2.37;1.40;;;15.50;99.90;;;;;;5052468;28;21073;-72
2023/03/30 10:19:26;;;;;;;4.80;1.67;;;16.50;99.90;;;;;;5052521;28;20455;-71
2023/03/30 10:21:55;;;;;;;2.43;1.10;;;17.90;99.90;;;;;;5052730;28;20570;-71
2023/03/30 10:24:24;;;;;;;7.37;1.67;;;18.20;99.90;;;;;;5052662;28;20497;-71
2023/03/30 10:26:53;;;;;;;2.07;1.37;;;17.80;99.90;;;;;;5053237;28;20555;-71
2023/03/30 10:29:23;;;;;;;6.07;1.73;;;17.20;99.90;;;;;;5057074;28;20935;-71
2023/03/30 10:31:53;;;;;;;3.77;1.50;;;16.70;99.90;;;;;;5052663;28;20448;-71
2023/03/30 10:34:28;;;;;;;2.67;1.30;;;16.40;99.90;;;;;;5052205;28;20424;-71
2023/03/30 10:36:55;;;;;;;1.40;1.00;;;16.10;99.90;;;;;;5052268;28;21223;-71
2023/03/30 10:39:25;;;;;;;4.00;2.33;;;15.90;99.90;;;;;;5052589;28;20531;-71
2023/03/30 10:41:54;;;;;;;4.03;1.40;;;15.90;99.90;;;;;;5051811;28;20454;-71
2023/03/30 10:44:29;;;;;;;4.93;2.47;;;15.80;99.90;;;;;;5051076;28;20440;-72
2023/03/30 10:47:21;;;;;;;3.57;1.60;;;15.70;99.90;;;;;;5052310;28;20748;-71
2023/03/30 10:50:03;;;;;;;2.57;1.43;;;15.70;99.90;;;;;;5052687;28;20965;-72
2023/03/30 10:52:38;;;;;;;2.07;1.40;;;15.60;99.90;;;;;;5065353;28;20420;-72
2023/03/30 10:55:17;;;;;;;1.10;0.80;;;15.50;99.90;;;;;;5054522;28;20427;-72
2023/03/30 10:57:54;;;;;;;3.20;1.60;;;15.10;99.90;;;;;;5052642;28;20460;-71
2023/03/30 11:00:31;;;;;;;1.60;1.00;;;15.10;99.90;;;;;;5052497;28;20428;-71
2023/03/30 11:03:05;;;;;;;3.27;1.63;;;15.20;99.90;;;;;;5053210;28;20467;-72
2023/03/30 11:05:35;;;;;;;4.03;1.70;;;15.20;99.90;;;;;;5052209;28;20517;-72
2023/03/30 11:08:05;;;;;;;2.90;1.40;;;15.10;99.90;;;;;;5051735;28;20456;-71
2023/03/30 11:10:37;;;;;;;3.53;1.70;;;15.20;99.90;;;;;;5051904;28;20435;-71
2023/03/30 11:13:07;;;;;;;4.87;1.90;;;16.00;99.90;;;;;;5050904;28;20452;-73
2023/03/30 11:15:42;;;;;;;11.27;1.40;;;17.20;99.90;;;;;;5051207;28;20990;-72
2023/03/30 11:18:19;;;;;;;6.47;3.43;;;18.40;99.90;;;;;;5060139;28;20883;-71
2023/03/30 11:20:50;;;;;;;2.80;0.90;;;20.00;99.90;;;;;;5053578;28;20454;-71
2023/03/30 11:23:23;;;;;;;8.10;1.77;;;19.90;99.90;;;;;;5052811;28;20471;-71
2023/03/30 11:26:01;;;;;;;3.20;1.37;;;19.60;99.90;;;;;;5051504;28;20463;-71
2023/03/30 11:28:58;;;;;;;3.20;2.00;;;20.20;99.90;;;;;;5051592;28;20442;-71
2023/03/30 11:31:49;;;;;;;4.70;2.60;;;20.00;99.90;;;;;;5049303;28;20546;-71
2023/03/30 11:34:24;;;;;;;4.53;1.93;;;19.90;99.90;;;;;;5048241;28;20462;-71
2023/03/30 11:37:01;;;;;;;2.70;1.33;;;19.00;99.90;;;;;;5052346;28;20478;-71
2023/03/30 11:39:33;;;;;;;7.60;1.83;;;18.40;99.90;;;;;;5051205;28;20432;-71
2023/03/30 11:42:11;;;;;;;2.13;1.40;;;17.90;99.90;;;;;;5050563;28;20551;-71
2023/03/30 11:44:38;;;;;;;2.23;2.03;;;17.50;99.90;;;;;;5051695;28;20519;-71
2023/03/30 11:47:26;;;;;;;4.10;1.80;;;17.50;99.90;;;;;;5060809;28;20531;-71
2023/03/30 11:50:07;;;;;;;6.80;2.70;;;17.90;99.90;;;;;;5052528;28;20460;-71
2023/03/30 11:52:41;;;;;;;3.17;1.50;;;18.10;99.90;;;;;;5055777;28;20856;-71
2023/03/30 11:55:50;;;;;;;2.90;1.83;;;17.70;99.90;;;;;;5051176;28;20436;-71
2023/03/30 11:58:25;;;;;;;4.20;1.83;;;17.80;99.90;;;;;;5050781;28;20542;-71
2023/03/30 12:01:08;;;;;;;5.17;1.60;;;17.90;99.90;;;;;;5051375;28;20427;-73
2023/03/30 12:03:42;;;;;;;14.30;3.30;;;17.70;99.90;;;;;;5050382;28;20995;-71
2023/03/30 12:06:48;;;;;;;6.33;1.80;;;17.40;99.90;;;;;;5050680;28;20549;-71
2023/03/30 12:09:25;;;;;;;5.80;1.83;;;17.30;99.90;;;;;;5050701;28;20916;-71
2023/03/30 12:12:01;;;;;;;4.43;1.60;;;17.50;99.90;;;;;;5051134;28;20779;-71
2023/03/30 12:14:53;;;;;;;4.37;1.93;;;17.90;99.90;;;;;;5052387;28;20489;-72
2023/03/30 12:17:34;;;;;;;6.00;3.00;;;18.00;99.90;;;;;;5054274;28;20496;-72
2023/03/30 12:20:11;;;;;;;5.23;1.87;;;17.70;99.90;;;;;;5050705;28;20459;-71
2023/03/30 12:22:47;;;;;;;15.23;1.90;;;17.50;99.90;;;;;;5050795;28;20468;-72
2023/03/30 12:25:24;;;;;;;7.13;2.17;;;17.50;99.90;;;;;;5050268;28;20455;-71
2023/03/30 12:28:03;;;;;;;4.40;1.73;;;17.10;99.90;;;;;;5050392;28;20470;-72
2023/03/30 12:30:42;;;;;;;3.73;1.70;;;17.50;99.90;;;;;;5050641;28;20515;-72
2023/03/30 12:33:12;;;;;;;10.53;1.53;;;18.50;99.90;;;;;;5050416;28;20722;-72
2023/03/30 12:35:59;;;;;;;4.67;2.10;;;18.80;99.90;;;;;;5050388;28;20498;-71
2023/03/30 12:38:28;;;;;;;12.03;2.07;;;19.10;99.90;;;;;;5050056;28;20514;-72
2023/03/30 12:41:13;;;;;;;4.20;1.47;;;20.10;99.90;;;;;;5053862;28;20515;-72
2023/03/30 12:43:57;;;;;;;4.93;1.83;;;20.70;99.90;;;;;;5059777;28;20482;-72
2023/03/30 12:46:34;;;;;;;2.80;1.40;;;20.80;99.90;;;;;;5050727;28;20550;-73
2023/03/30 12:49:09;;;;;;;2.07;1.40;;;21.70;99.90;;;;;;5050432;28;20435;-73
2023/03/30 12:51:57;;;;;;;8.57;1.73;;;20.80;99.90;;;;;;5050991;28;20952;-72
2023/03/30 12:54:47;;;;;;;2.13;1.60;;;20.60;99.90;;;;;;5050680;28;20875;-72
2023/03/30 12:57:27;;;;;;;2.83;1.80;;;19.50;99.90;;;;;;5050832;28;20546;-72
2023/03/30 13:00:11;;;;;;;3.07;2.03;;;18.90;99.90;;;;;;5050639;28;20467;-72
2023/03/30 13:03:08;;;;;;;3.30;1.57;;;18.30;99.90;;;;;;5051076;28;20435;-72
2023/03/30 13:05:39;;;;;;;3.00;1.53;;;17.40;99.90;;;;;;5049937;28;20486;-72
2023/03/30 13:08:10;;;;;;;1.90;1.50;;;16.20;99.90;;;;;;5049847;28;20536;-71
2023/03/30 13:10:40;;;;;;;6.47;2.30;;;15.30;99.90;;;;;;5050027;28;20478;-72